Главная страница
METAR-TAF:

METAR-TAF

Аэропорты :

Belmar / Farmingdale, Нью-Джерси, США

широта: 40-11N, долгота: 074-08W, высота над уровнем моря: 48 м

Текущие метеонаблюдения

Эта сводка был подготовлена 38 минут назад, в 21:56 UTC
Ветер 10 Узел от восточно-юго-восточный
Температура 13°C
Влажность 72%
Давление 1011 hPa
Видимость: 16.1 км
ясное небо

METAR: KBLM 072156Z AUTO 12010KT 10SM CLR 13/08 A2986 RMK AO2 SLP112 T01280083 PNO $

Время: 18:34 (22:34 UTC)


TAF: отсутствует

Метеонаблюдения и прогнозы для более 4000 аэропортов (сводки METAR и TAF).

Имеющиеся станции представлены на карте желтыми и красными точками.

Чтобы увидеть название станции, наведите на нее мышь.

Затем щелкните, чтобы увидеть метеонаблюдения и метеопрогнозы.

Управление картой: чтобы увеличить масштаб, щелкните зеленые кнопки с черным крестиком; чтобы уменьшить масштаб, щелкните зеленую кнопку с тире; для просмотра соседних карт щелкайте зеленые стрелки.


METAR-TAF: